Ruth, Nevada
Current Conditions -  °F | °C
As of 3:53 PM on Saturday 20 Dec 2014 (Local Time) from KELY Reporting Station
Overcast Overcast  
Wind Chill:   Ceiling: 3400
Heat Index:   Visibility: 10mi
Dew Point: -1°   Wind: 0mph
Humidity: 76%   Direction: NA
Pressure: 30.1"   Gusts: NA
Location:  39.28°N, 114.99°W
Report Text: KELY 202353Z AUTO 00000KT 10SM FEW027 OVC034 03/M01 A3010 RMK AO2 SLP196 T00331006 10044 20000 53003
Loading
Personal Weather Stations






























Interactive Weather Map New forecast layout! Learn more

10-Day Weather Forecast

Advertisements
Track Severe Weather on mobile